createdAt,value
2022-09-30T00:01:44.449Z,993.1899414
2022-09-30T00:02:45.553Z,993.2443848
2022-09-30T00:03:43.566Z,993.2120361
2022-09-30T00:04:46.524Z,993.2748413
2022-09-30T00:05:43.356Z,993.2687378
2022-09-30T00:06:48.080Z,993.2302856
2022-09-30T00:07:43.404Z,993.2265015
2022-09-30T00:08:49.009Z,993.1757813
2022-09-30T00:09:50.960Z,993.256897
2022-09-30T00:11:54.686Z,993.2081299
2022-09-30T00:12:50.385Z,993.2142334
2022-09-30T00:13:51.312Z,993.2608032
2022-09-30T00:14:49.297Z,993.2849121
2022-09-30T00:16:48.925Z,993.3032837
2022-09-30T00:17:52.397Z,993.4389038
2022-09-30T00:18:55.985Z,993.3903198
2022-09-30T00:19:54.864Z,993.4084473
2022-09-30T00:21:54.523Z,993.4084473
2022-09-30T00:22:58.327Z,993.4185181
2022-09-30T00:24:04.448Z,993.4105225
2022-09-30T00:25:05.196Z,993.3883057
2022-09-30T00:27:03.847Z,993.4650269
2022-09-30T00:28:08.432Z,993.4650269
2022-09-30T00:29:52.338Z,993.4042969
2022-09-30T00:30:35.575Z,993.4165649
2022-09-30T00:32:40.240Z,993.4628906
2022-09-30T00:33:34.940Z,993.3861694
2022-09-30T00:34:37.510Z,993.4285889
2022-09-30T00:35:32.991Z,993.4084473
2022-09-30T00:36:38.912Z,993.3760376
2022-09-30T00:37:33.256Z,993.430481
2022-09-30T00:38:34.497Z,993.382019
2022-09-30T00:39:34.445Z,993.4285889
2022-09-30T00:40:36.854Z,993.3842163
2022-09-30T00:41:32.535Z,993.3071899
2022-09-30T00:42:32.306Z,993.3800049
2022-09-30T00:43:27.699Z,993.392334
2022-09-30T00:44:38.649Z,993.3476563
2022-09-30T00:45:33.873Z,993.4002075
2022-09-30T00:47:32.680Z,993.3822021
2022-09-30T00:48:30.920Z,993.3660278
2022-09-30T00:49:33.699Z,993.4265747
2022-09-30T00:50:25.976Z,993.4528198
2022-09-30T00:52:20.910Z,993.3984375
2022-09-30T00:53:17.782Z,993.4611206
2022-09-30T00:54:16.605Z,993.4449463
2022-09-30T00:55:28.647Z,993.4348145
2022-09-30T00:57:28.817Z,993.4125977
2022-09-30T00:58:30.418Z,993.4125977
2022-09-30T00:59:23.382Z,993.3982544
2022-09-30T01:00:26.820Z,993.4429932
2022-09-30T01:01:22.136Z,993.4165649
2022-09-30T01:02:25.981Z,993.4631348
2022-09-30T01:03:19.056Z,993.4650269
2022-09-30T01:04:24.049Z,993.4224854
2022-09-30T01:05:19.404Z,993.4833374
2022-09-30T01:06:46.770Z,993.4812622
2022-09-30T01:07:30.209Z,993.5683594
2022-09-30T01:08:28.284Z,993.4448242
2022-09-30T01:09:31.572Z,993.4387207
2022-09-30T01:10:26.543Z,993.5438843
2022-09-30T01:12:23.657Z,993.5521851
2022-09-30T01:13:23.642Z,993.5622559
2022-09-30T01:14:19.110Z,993.5115356
2022-09-30T01:15:21.520Z,993.5317993
2022-09-30T01:17:19.161Z,993.491333
2022-09-30T01:18:14.320Z,993.4611206
2022-09-30T01:19:17.366Z,993.4367065
2022-09-30T01:20:12.597Z,993.4528198
2022-09-30T01:21:15.152Z,993.5097046
2022-09-30T01:22:11.447Z,993.4528198
2022-09-30T01:23:11.620Z,993.5237427
2022-09-30T01:24:12.218Z,993.5783081
2022-09-30T01:26:54.260Z,993.5742188
2022-09-30T01:28:07.301Z,993.5136108
2022-09-30T01:29:01.015Z,993.6047363
2022-09-30T01:29:59.144Z,993.5198364
2022-09-30T01:32:01.553Z,993.5296631
2022-09-30T01:33:06.159Z,993.5115356
2022-09-30T01:34:04.112Z,993.6166992
2022-09-30T01:35:03.406Z,993.6571655
2022-09-30T01:37:33.887Z,993.6528931
2022-09-30T01:38:14.460Z,993.6104736
2022-09-30T01:39:12.514Z,993.6063843
2022-09-30T01:40:13.978Z,993.6489258
2022-09-30T01:42:12.466Z,993.6306152
2022-09-30T01:43:10.026Z,993.5881348
2022-09-30T01:44:12.809Z,993.5762329
2022-09-30T01:45:09.193Z,993.5985107
2022-09-30T01:47:05.465Z,993.6773682
2022-09-30T01:48:15.353Z,993.539856
2022-09-30T01:49:13.956Z,993.6043701
2022-09-30T01:50:09.388Z,993.590332
2022-09-30T01:51:09.277Z,993.590332
2022-09-30T01:52:11.908Z,993.5759277
2022-09-30T01:53:14.159Z,993.5759277
2022-09-30T01:54:09.519Z,993.5741577
2022-09-30T01:55:16.152Z,993.5477905
2022-09-30T01:57:15.086Z,993.614502
2022-09-30T01:58:08.514Z,993.5982666
2022-09-30T01:59:11.035Z,993.6062622
2022-09-30T02:00:09.968Z,993.6771851
2022-09-30T02:01:12.385Z,993.614502
2022-09-30T02:02:05.861Z,993.6548462
2022-09-30T02:03:09.468Z,993.6022949
2022-09-30T02:04:04.785Z,993.6364746
2022-09-30T02:05:07.118Z,993.6789551
2022-09-30T02:06:01.247Z,993.6810913
2022-09-30T02:07:04.403Z,993.6508789
2022-09-30T02:08:04.133Z,993.6306763
2022-09-30T02:09:08.224Z,993.6206055
2022-09-30T02:10:00.804Z,993.6569824
2022-09-30T02:12:01.706Z,993.6749878
2022-09-30T02:12:57.648Z,993.5982666
2022-09-30T02:14:41.898Z,993.6428223
2022-09-30T02:15:29.641Z,993.5884399
2022-09-30T02:17:25.679Z,993.5357666
2022-09-30T02:18:27.631Z,993.6266479
2022-09-30T02:19:26.951Z,993.578125
2022-09-30T02:20:32.489Z,993.5276489
2022-09-30T02:22:26.928Z,993.541748
2022-09-30T02:23:28.329Z,993.4910278
2022-09-30T02:24:31.027Z,993.5356445
2022-09-30T02:25:25.913Z,993.5215454
2022-09-30T02:26:24.879Z,993.5801392
2022-09-30T02:27:27.014Z,993.5921631
2022-09-30T02:28:28.498Z,993.5234375
2022-09-30T02:29:22.914Z,993.5215454
2022-09-30T02:30:26.606Z,993.5053711
2022-09-30T02:32:22.908Z,993.5093994
2022-09-30T02:33:22.823Z,993.5435791
2022-09-30T02:34:19.059Z,993.493103
2022-09-30T02:35:20.073Z,993.5536499
2022-09-30T02:36:15.370Z,993.614502
2022-09-30T02:37:16.092Z,993.5900269
2022-09-30T02:38:10.281Z,993.6022949
2022-09-30T02:39:15.898Z,993.6022949
2022-09-30T02:40:16.682Z,993.6203003
2022-09-30T02:42:17.771Z,993.6364746
2022-09-30T02:43:16.998Z,993.6203003
2022-09-30T02:44:16.241Z,993.6386108
2022-09-30T02:45:11.598Z,993.6286011
2022-09-30T02:48:18.753Z,993.6568604
2022-09-30T02:49:01.614Z,993.7115479
2022-09-30T02:50:00.676Z,993.6550293
2022-09-30T02:52:01.194Z,993.6975098
2022-09-30T02:53:11.451Z,993.7015381
2022-09-30T02:54:13.177Z,993.6710205
2022-09-30T02:55:13.985Z,993.7156372
2022-09-30T02:56:13.302Z,993.6973267
2022-09-30T02:57:14.406Z,993.7498169
2022-09-30T02:58:13.922Z,993.7034302
2022-09-30T02:59:19.877Z,993.7296753
2022-09-30T03:00:21.803Z,993.7296753
2022-09-30T03:02:20.754Z,993.7498169
2022-09-30T03:03:24.848Z,993.7498169
2022-09-30T03:04:20.016Z,993.8103638
2022-09-30T03:05:23.676Z,993.8085327
2022-09-30T03:06:27.678Z,993.8326416
2022-09-30T03:07:28.049Z,993.7822876
2022-09-30T03:08:26.291Z,993.8164063
2022-09-30T03:09:30.260Z,993.861084
2022-09-30T03:10:27.127Z,993.8427124
2022-09-30T03:11:28.996Z,993.8510132
2022-09-30T03:12:25.699Z,993.7661133
2022-09-30T03:13:31.986Z,993.7740479
2022-09-30T03:14:28.904Z,993.800293
2022-09-30T03:15:30.777Z,993.7984619
2022-09-30T03:16:29.125Z,993.7782593
2022-09-30T03:17:27.854Z,993.7437744
2022-09-30T03:18:31.462Z,993.7559204
2022-09-30T03:19:30.029Z,993.8041992
2022-09-30T03:20:30.863Z,993.7700195
2022-09-30T03:21:29.248Z,993.7012329
2022-09-30T03:22:30.133Z,993.7192993
2022-09-30T03:23:54.457Z,993.7757568
2022-09-30T03:24:34.847Z,993.8284302
2022-09-30T03:25:32.974Z,993.7779541
2022-09-30T03:26:32.882Z,993.8063965
2022-09-30T03:27:30.866Z,993.763916
2022-09-30T03:28:35.355Z,993.8446045
2022-09-30T03:29:36.012Z,993.8323364
2022-09-30T03:30:33.967Z,993.7617798
2022-09-30T03:32:36.177Z,993.9090576
2022-09-30T03:33:36.692Z,993.9654541
2022-09-30T03:34:39.128Z,993.8805542
2022-09-30T03:36:42.479Z,993.9593506
2022-09-30T03:37:39.397Z,993.9089355
2022-09-30T03:38:42.683Z,993.9089355
2022-09-30T03:39:38.996Z,994.0582886
2022-09-30T03:41:39.437Z,994.0402832
2022-09-30T03:42:40.093Z,993.9367065
2022-09-30T03:43:35.677Z,993.9089355
2022-09-30T03:44:38.378Z,993.9251709
2022-09-30T03:45:33.486Z,993.9575806
2022-09-30T03:47:31.557Z,993.9475098
2022-09-30T03:48:37.448Z,993.9737549
2022-09-30T03:49:30.822Z,994.0100708
2022-09-30T03:50:31.764Z,993.9615479
2022-09-30T03:52:32.033Z,994.0079956
2022-09-30T03:53:30.282Z,993.9916992
2022-09-30T03:54:30.183Z,994.0463867
2022-09-30T03:55:29.202Z,994.0968628
2022-09-30T03:57:25.027Z,994.0928345
2022-09-30T03:58:37.035Z,994.1554565
2022-09-30T03:59:33.967Z,994.1126709
2022-09-30T04:00:32.990Z,994.100769
2022-09-30T04:01:39.115Z,994.1270142
2022-09-30T04:02:41.175Z,994.175293
2022-09-30T04:03:40.259Z,994.1489868
2022-09-30T04:04:36.288Z,994.1227417
2022-09-30T04:07:53.397Z,994.079834
2022-09-30T04:08:33.940Z,994.0700073
2022-09-30T04:09:28.704Z,994.1001587
2022-09-30T04:10:30.496Z,994.0717773
2022-09-30T04:11:30.963Z,994.104248
2022-09-30T04:12:27.938Z,994.164856
2022-09-30T04:13:25.950Z,994.1443481
2022-09-30T04:14:24.040Z,994.1685791
2022-09-30T04:15:17.307Z,994.1746216
2022-09-30T04:17:12.077Z,994.194458
2022-09-30T04:18:12.530Z,994.2368774
2022-09-30T04:19:10.451Z,994.2589111
2022-09-30T04:20:09.981Z,994.2890625
2022-09-30T04:22:10.682Z,994.3538208
2022-09-30T04:23:03.611Z,994.3051758
2022-09-30T04:23:59.066Z,994.3595581
2022-09-30T04:24:57.619Z,994.3534546
2022-09-30T04:25:59.239Z,994.3515625
2022-09-30T04:27:02.241Z,994.3858032
2022-09-30T04:27:53.563Z,994.3534546
2022-09-30T04:28:50.176Z,994.3515625
2022-09-30T04:29:48.525Z,994.4142456
2022-09-30T04:31:44.633Z,994.4646606
2022-09-30T04:32:42.187Z,994.5355225
2022-09-30T04:33:36.153Z,994.4685669
2022-09-30T04:34:36.532Z,994.4606323
2022-09-30T04:35:33.710Z,994.5293579
2022-09-30T04:36:30.165Z,994.5473633
2022-09-30T04:37:27.616Z,994.5574951
2022-09-30T04:39:11.079Z,994.4909668
2022-09-30T04:39:53.613Z,994.5014038
2022-09-30T04:41:50.451Z,994.4511108
2022-09-30T04:42:48.571Z,994.479248
2022-09-30T04:43:47.639Z,994.4550171
2022-09-30T04:44:34.352Z,994.4650879
2022-09-30T04:45:33.748Z,994.5093994
2022-09-30T04:46:35.517Z,994.4852295
2022-09-30T04:47:33.171Z,994.4870605
2022-09-30T04:48:33.606Z,994.5014038
2022-09-30T04:49:31.643Z,994.5198364
2022-09-30T04:50:30.409Z,994.4651489
2022-09-30T04:51:32.300Z,994.5115356
2022-09-30T04:52:31.644Z,994.5216675
2022-09-30T04:53:27.443Z,994.4629517
2022-09-30T04:54:27.974Z,994.5618896
2022-09-30T04:55:23.197Z,994.4992676
2022-09-30T04:57:29.945Z,994.5964355
2022-09-30T04:58:36.037Z,994.5176392
2022-09-30T04:58:37.148Z,994.5176392
2022-09-30T04:59:26.582Z,994.6043701
2022-09-30T05:00:24.580Z,994.625
2022-09-30T05:02:21.239Z,994.5803223
2022-09-30T05:03:22.748Z,994.5460815
2022-09-30T05:04:20.766Z,994.6087646
2022-09-30T05:05:20.426Z,994.5742188
2022-09-30T05:06:15.558Z,994.5986938
2022-09-30T05:07:14.727Z,994.6450806
2022-09-30T05:08:14.946Z,994.6468506
2022-09-30T05:09:15.094Z,994.6104736
2022-09-30T05:10:10.486Z,994.6914673
2022-09-30T05:11:13.787Z,994.6651611
2022-09-30T05:12:09.331Z,994.6245117
2022-09-30T05:13:04.142Z,994.6266479
2022-09-30T05:14:04.623Z,994.628418
2022-09-30T05:15:35.546Z,994.6994019
2022-09-30T05:16:15.366Z,994.7379761
2022-09-30T05:17:16.516Z,994.7098389
2022-09-30T05:18:18.656Z,994.774353
2022-09-30T05:19:14.222Z,994.6813965
2022-09-30T05:20:17.676Z,994.7015381
2022-09-30T05:20:21.232Z,994.7015381
2022-09-30T05:21:12.375Z,994.7340088
2022-09-30T05:22:07.809Z,994.6994019
2022-09-30T05:23:07.469Z,994.6569824
2022-09-30T05:24:02.103Z,994.640686
2022-09-30T05:25:03.972Z,994.590332
2022-09-30T05:27:02.214Z,994.5802612
2022-09-30T05:27:55.047Z,994.5477905
2022-09-30T05:28:56.479Z,994.628418
2022-09-30T05:29:58.365Z,994.6992798
2022-09-30T05:30:58.409Z,994.6367188
2022-09-30T05:31:53.221Z,994.7154541
2022-09-30T05:32:53.742Z,994.7072754
2022-09-30T05:33:55.758Z,994.727356
2022-09-30T05:33:58.263Z,994.727356
2022-09-30T05:34:57.771Z,994.8023682
2022-09-30T05:36:56.134Z,994.6994019
2022-09-30T05:37:55.501Z,994.8066406
2022-09-30T05:38:59.990Z,994.8408813
2022-09-30T05:39:59.860Z,994.8591919
2022-09-30T05:41:59.091Z,994.9057007
2022-09-30T05:42:54.257Z,994.9481812
2022-09-30T05:43:57.040Z,994.9745483
2022-09-30T05:44:49.858Z,995.0129395
2022-09-30T05:46:48.317Z,994.9845581
2022-09-30T05:47:44.883Z,994.958252
2022-09-30T05:48:45.056Z,995.0917358
2022-09-30T05:49:41.364Z,994.9866943
2022-09-30T05:51:38.048Z,995.1504517
2022-09-30T05:52:40.852Z,995.1442871
2022-09-30T05:53:34.412Z,995.1785889
2022-09-30T05:54:36.742Z,995.1404419
2022-09-30T05:56:23.266Z,995.1488037
2022-09-30T05:57:05.256Z,995.102417
2022-09-30T05:58:06.958Z,995.0822754
2022-09-30T05:59:08.176Z,995.104248
2022-09-30T06:00:06.167Z,995.140564
2022-09-30T06:02:06.988Z,995.1467285
2022-09-30T06:03:04.243Z,995.1348267
2022-09-30T06:04:08.446Z,995.2216187
2022-09-30T06:05:06.724Z,995.1327515
2022-09-30T06:07:09.558Z,995.1896362
2022-09-30T06:07:10.682Z,995.1896362
2022-09-30T06:08:04.374Z,995.0661621
2022-09-30T06:09:05.319Z,995.1532593
2022-09-30T06:10:01.732Z,995.1735229
2022-09-30T06:11:05.411Z,995.1958618
2022-09-30T06:12:02.625Z,995.2321777
2022-09-30T06:13:07.496Z,995.2120972
2022-09-30T06:14:02.983Z,995.2282715
2022-09-30T06:15:04.059Z,995.270752
2022-09-30T06:17:05.776Z,995.2729492
2022-09-30T06:18:02.146Z,995.2546387
2022-09-30T06:19:04.421Z,995.2971191
2022-09-30T06:20:02.441Z,995.2952881
2022-09-30T06:21:59.497Z,995.3378296
2022-09-30T06:23:01.583Z,995.3114624
2022-09-30T06:23:58.069Z,995.319458
2022-09-30T06:25:00.209Z,995.2993164
2022-09-30T06:25:58.362Z,995.3339233
2022-09-30T06:27:02.805Z,995.3154907
2022-09-30T06:28:00.908Z,995.3035889
2022-09-30T06:29:03.758Z,995.3035889
2022-09-30T06:29:58.148Z,995.4067383
2022-09-30T06:31:02.140Z,995.2572021
2022-09-30T06:31:58.086Z,995.3965454
2022-09-30T06:33:02.170Z,995.4310913
2022-09-30T06:33:56.669Z,995.40271
2022-09-30T06:35:01.249Z,995.3947754
2022-09-30T06:37:01.935Z,995.4534912
2022-09-30T06:37:56.202Z,995.4776611
2022-09-30T06:38:59.793Z,995.5201416
2022-09-30T06:39:53.995Z,995.5446777
2022-09-30T06:41:53.909Z,995.5973511
2022-09-30T06:43:41.617Z,995.6463013
2022-09-30T06:43:44.808Z,995.6463013
2022-09-30T06:43:58.676Z,995.6463013
2022-09-30T06:44:19.710Z,995.630127
2022-09-30T06:45:29.683Z,995.604126
2022-09-30T06:45:31.384Z,995.604126
2022-09-30T06:45:32.686Z,995.604126
2022-09-30T06:47:24.029Z,995.689209
2022-09-30T06:47:25.088Z,995.689209
2022-09-30T06:47:26.260Z,995.689209
2022-09-30T06:48:14.225Z,995.7438965
2022-09-30T06:49:13.740Z,995.7338257
2022-09-30T06:49:15.643Z,995.7338257
2022-09-30T06:50:18.803Z,995.6468506
2022-09-30T06:50:24.509Z,995.6468506
2022-09-30T06:50:25.561Z,995.6468506
2022-09-30T06:51:08.902Z,995.616333
2022-09-30T06:52:04.387Z,995.6487427
2022-09-30T06:53:06.170Z,995.6934204
2022-09-30T06:53:58.869Z,995.6628418
2022-09-30T06:54:59.548Z,995.7215576
2022-09-30T06:56:53.922Z,995.7151489
2022-09-30T06:57:48.434Z,995.8225098
2022-09-30T06:58:47.917Z,995.8527832
2022-09-30T06:59:42.526Z,995.8809204
2022-09-30T07:01:37.210Z,995.8808594
2022-09-30T07:02:40.890Z,995.9071655
2022-09-30T07:03:33.650Z,995.9190674
2022-09-30T07:04:38.725Z,995.937439
2022-09-30T07:05:32.026Z,995.8887329
2022-09-30T07:06:34.045Z,995.9737549
2022-09-30T07:07:29.378Z,995.9129639
2022-09-30T07:08:26.147Z,995.9353027
2022-09-30T07:09:25.962Z,996.0062256
2022-09-30T07:10:27.574Z,996.0142212
2022-09-30T07:11:20.410Z,996.0509644
2022-09-30T07:12:22.450Z,995.9882813
2022-09-30T07:13:15.004Z,995.9943848
2022-09-30T07:14:19.014Z,995.9620361
2022-09-30T07:15:13.891Z,995.986145
2022-09-30T07:17:45.711Z,996.0211182
2022-09-30T07:18:40.828Z,996.0232544
2022-09-30T07:19:40.665Z,996.0049438
2022-09-30T07:20:35.410Z,996.0089111
2022-09-30T07:21:35.370Z,996.0028076
2022-09-30T07:22:31.431Z,996.0111084
2022-09-30T07:23:33.010Z,995.9501343
2022-09-30T07:24:26.429Z,996.0028076
2022-09-30T07:25:26.567Z,995.9908447
2022-09-30T07:26:21.507Z,996.0575562
2022-09-30T07:27:23.832Z,996.0089111
2022-09-30T07:28:17.246Z,995.9501343
2022-09-30T07:30:07.225Z,996.0596924
2022-09-30T07:30:08.073Z,996.0596924
2022-09-30T07:30:08.435Z,996.0596924
2022-09-30T07:30:26.958Z,995.9887695
2022-09-30T07:32:21.044Z,996.0560913
2022-09-30T07:33:20.241Z,995.9971924
2022-09-30T07:34:16.466Z,995.9607544
2022-09-30T07:35:22.685Z,995.9589233
2022-09-30T07:36:15.846Z,995.9547119
2022-09-30T07:37:13.111Z,995.9831543
2022-09-30T07:38:13.322Z,996.0176392
2022-09-30T07:39:08.853Z,995.9932861
2022-09-30T07:40:09.404Z,996.0094604
2022-09-30T07:41:05.878Z,995.9831543
2022-09-30T07:42:03.735Z,996.0379639
2022-09-30T07:43:03.825Z,996.0440674
2022-09-30T07:43:59.703Z,996.112915
2022-09-30T07:45:00.296Z,996.1107788
2022-09-30T07:46:57.698Z,996.1370239
2022-09-30T07:47:53.974Z,996.1251831
2022-09-30T07:48:51.325Z,996.1635742
2022-09-30T07:49:51.955Z,996.1171265
2022-09-30T07:50:47.656Z,996.1676025
2022-09-30T07:51:48.786Z,996.1373291
2022-09-30T07:52:44.471Z,996.0968628
2022-09-30T07:53:47.699Z,996.1798706
2022-09-30T07:54:46.615Z,996.2731323
2022-09-30T07:54:50.583Z,996.2731323
2022-09-30T07:55:42.267Z,996.1616211
2022-09-30T07:56:58.141Z,996.1618652
2022-09-30T07:57:08.871Z,996.1618652
2022-09-30T07:57:41.078Z,996.1556396
2022-09-30T07:58:39.998Z,996.1193237
2022-09-30T07:59:35.854Z,996.147644
2022-09-30T08:00:42.426Z,996.2429199
2022-09-30T08:00:42.950Z,996.2429199
2022-09-30T08:02:07.032Z,996.0928345
2022-09-30T08:02:47.571Z,996.0543823
2022-09-30T08:03:45.453Z,996.2145386
2022-09-30T08:04:45.615Z,996.1881104
2022-09-30T08:06:41.331Z,996.1192017
2022-09-30T08:07:36.673Z,996.184082
2022-09-30T08:08:36.979Z,996.147522
2022-09-30T08:09:32.393Z,996.1838989
2022-09-30T08:10:32.708Z,996.1677246
2022-09-30T08:12:28.451Z,996.1212769
2022-09-30T08:13:23.831Z,996.0828247
2022-09-30T08:14:24.320Z,996.1133423
2022-09-30T08:15:19.586Z,996.0667114
2022-09-30T08:17:16.506Z,996.0401611
2022-09-30T08:18:17.641Z,996.0906372
2022-09-30T08:19:13.387Z,996.1329956
2022-09-30T08:20:14.306Z,996.1268921
2022-09-30T08:22:09.263Z,996.114502
2022-09-30T08:23:10.243Z,996.1914063
2022-09-30T08:24:06.561Z,996.225647
2022-09-30T08:25:07.805Z,996.203125
2022-09-30T08:26:04.043Z,996.1016235
2022-09-30T08:27:05.447Z,996.1622925
2022-09-30T08:28:01.777Z,996.1113281
2022-09-30T08:29:05.767Z,996.147522
2022-09-30T08:30:04.645Z,996.1737671
2022-09-30T08:31:59.889Z,996.1791992
2022-09-30T08:33:03.219Z,996.1870117
2022-09-30T08:33:57.500Z,996.2331543
2022-09-30T08:34:59.397Z,996.2167358
2022-09-30T08:36:59.780Z,996.2323608
2022-09-30T08:37:56.211Z,996.1690063
2022-09-30T08:39:00.485Z,996.2313843
2022-09-30T08:39:55.176Z,996.1641235
2022-09-30T08:41:54.842Z,996.2206421
2022-09-30T08:42:57.887Z,996.2304688
2022-09-30T08:43:54.863Z,996.2136841
2022-09-30T08:44:57.027Z,996.1766357
2022-09-30T08:46:48.616Z,996.2185669
2022-09-30T08:47:29.167Z,996.2114258
2022-09-30T08:48:28.273Z,996.2615356
2022-09-30T08:49:28.867Z,996.2125854
2022-09-30T08:50:25.265Z,996.2468872
2022-09-30T08:53:08.179Z,996.2598267
2022-09-30T08:53:48.736Z,996.2648315
2022-09-30T08:54:47.793Z,996.2217407
2022-09-30T08:55:48.726Z,996.2849121
2022-09-30T08:56:45.161Z,996.2804565
2022-09-30T08:57:47.740Z,996.2575684
2022-09-30T09:07:04.795Z,996.2731323
2022-09-30T09:07:45.524Z,996.211853
2022-09-30T09:08:44.550Z,996.2751465
2022-09-30T09:09:45.495Z,996.2453003
2022-09-30T09:10:41.780Z,996.2484131
2022-09-30T09:11:43.597Z,996.2366943
2022-09-30T09:12:39.816Z,996.3323364
2022-09-30T09:13:39.917Z,996.2263794
2022-09-30T09:14:36.933Z,996.3117065
2022-09-30T09:15:37.237Z,996.2633057
2022-09-30T09:16:34.159Z,996.2504883
2022-09-30T09:17:34.483Z,996.3175659
2022-09-30T09:18:30.845Z,996.3151855
2022-09-30T09:19:31.641Z,996.3106079
2022-09-30T09:20:27.768Z,996.3371582
2022-09-30T09:22:26.194Z,996.3120117
2022-09-30T09:23:28.028Z,996.2706909
2022-09-30T09:24:24.807Z,996.2732544
2022-09-30T09:25:26.804Z,996.3703003
2022-09-30T09:26:23.862Z,996.2435913
2022-09-30T09:27:28.245Z,996.3392334
2022-09-30T09:28:22.712Z,996.2817383
2022-09-30T09:29:24.590Z,996.307373
2022-09-30T09:30:31.219Z,996.3004761
2022-09-30T09:31:36.178Z,996.3007813
2022-09-30T09:32:30.910Z,996.291626
2022-09-30T09:33:35.833Z,996.3147583
2022-09-30T09:34:30.537Z,996.302002
2022-09-30T09:35:35.358Z,996.3101807
2022-09-30T09:36:30.581Z,996.2906494
2022-09-30T09:37:32.023Z,996.2387695
2022-09-30T09:38:32.595Z,996.3170166
2022-09-30T09:39:30.537Z,996.2572632
2022-09-30T09:40:32.914Z,996.1834106
2022-09-30T09:42:36.190Z,996.164856
2022-09-30T09:43:32.424Z,996.1928101
2022-09-30T09:44:37.154Z,996.1616211
2022-09-30T09:47:12.874Z,996.1727295
2022-09-30T09:47:33.587Z,996.2175293
2022-09-30T09:48:35.872Z,996.1976318
2022-09-30T09:49:33.900Z,996.173645
2022-09-30T09:51:33.264Z,996.1757202
2022-09-30T09:52:14.781Z,996.2424316
2022-09-30T09:53:14.842Z,996.1975098
2022-09-30T09:54:16.977Z,996.182373
2022-09-30T09:56:53.699Z,996.1776733
2022-09-30T09:57:13.992Z,996.2823486
2022-09-30T09:58:14.086Z,996.2498169
2022-09-30T09:59:19.300Z,996.2529907
2022-09-30T10:00:14.133Z,996.2033081
2022-09-30T10:01:16.882Z,996.2747803
2022-09-30T10:02:14.643Z,996.262085
2022-09-30T10:03:17.280Z,996.2203369
2022-09-30T10:04:15.079Z,996.2661743
2022-09-30T10:05:17.826Z,996.2661743
2022-09-30T10:07:18.428Z,996.3123169
2022-09-30T10:08:16.672Z,996.2461548
2022-09-30T10:09:21.633Z,996.3340454
2022-09-30T10:10:22.347Z,996.2648315
2022-09-30T10:10:24.010Z,996.2648315
2022-09-30T10:12:17.933Z,996.2504883
2022-09-30T10:13:22.879Z,996.2270508
2022-09-30T10:14:18.395Z,996.2214355
2022-09-30T10:15:20.488Z,996.1820068
2022-09-30T10:17:20.227Z,996.1345215
2022-09-30T10:18:18.393Z,996.2182617
2022-09-30T10:19:22.510Z,996.1642456
2022-09-30T10:20:17.180Z,996.2365723
2022-09-30T10:21:21.921Z,996.2156982
2022-09-30T10:22:16.423Z,996.1812744
2022-09-30T10:23:20.955Z,996.2004395
2022-09-30T10:24:16.449Z,996.1651001
2022-09-30T10:25:19.780Z,996.1027832
2022-09-30T10:27:16.128Z,996.1956177
2022-09-30T10:28:13.369Z,996.1189575
2022-09-30T10:29:14.985Z,996.1489868
2022-09-30T10:30:11.582Z,996.1350708
2022-09-30T10:31:15.810Z,996.1503296
2022-09-30T10:32:10.302Z,996.0465698
2022-09-30T10:33:10.862Z,996.1158447
2022-09-30T10:34:07.329Z,996.1398315
2022-09-30T10:35:08.176Z,996.0996704
2022-09-30T10:36:50.127Z,996.1367188
2022-09-30T10:37:30.450Z,996.1956177
2022-09-30T10:38:31.328Z,996.1978149
2022-09-30T10:39:26.980Z,996.1615601
2022-09-30T10:40:27.773Z,996.1340332
2022-09-30T10:41:24.507Z,996.117981
2022-09-30T10:42:26.060Z,996.2320557
2022-09-30T10:43:20.359Z,996.1628418
2022-09-30T10:44:18.601Z,996.1998291
2022-09-30T10:47:02.322Z,996.1419678
2022-09-30T10:47:42.466Z,996.171936
2022-09-30T10:48:40.737Z,996.1324463
2022-09-30T10:49:38.809Z,996.1245117
2022-09-30T10:50:37.244Z,996.1419678
2022-09-30T10:51:34.891Z,996.1514282
2022-09-30T10:52:32.949Z,996.1170044
2022-09-30T10:53:30.630Z,996.1618652
2022-09-30T10:54:28.669Z,996.0847168
2022-09-30T10:55:26.538Z,996.1609497
2022-09-30T10:56:24.121Z,996.0917358
2022-09-30T10:57:21.977Z,996.1609497
2022-09-30T10:58:19.678Z,996.1160278
2022-09-30T10:59:18.018Z,996.1530762
2022-09-30T11:00:17.836Z,996.1448364
2022-09-30T11:01:13.326Z,996.1182861
2022-09-30T11:02:16.186Z,996.211853
2022-09-30T11:03:08.938Z,996.1657104
2022-09-30T11:04:06.611Z,996.1207886
2022-09-30T11:05:07.324Z,996.2235718
2022-09-30T11:06:02.610Z,996.1751709
2022-09-30T11:07:00.822Z,996.1751709
2022-09-30T11:07:55.157Z,996.2260742
2022-09-30T11:08:56.908Z,996.2583008
2022-09-30T11:09:49.894Z,996.2235718
2022-09-30T11:11:52.744Z,996.260498
2022-09-30T11:12:33.555Z,996.3009644
2022-09-30T11:13:31.976Z,996.2639771
2022-09-30T11:14:30.618Z,996.2639771
2022-09-30T11:15:31.183Z,996.3032227
2022-09-30T11:16:27.491Z,996.3104858
2022-09-30T11:17:25.185Z,996.3796997
2022-09-30T11:19:10.981Z,996.3702393
2022-09-30T11:19:51.316Z,996.4057007
2022-09-30T11:20:50.227Z,996.3952637
2022-09-30T11:21:50.556Z,996.4000244
2022-09-30T11:22:46.096Z,996.4138794
2022-09-30T11:23:46.554Z,996.4321899
2022-09-30T11:24:42.055Z,996.3920288
2022-09-30T11:25:42.464Z,996.3781128
2022-09-30T11:26:37.997Z,996.4025269
2022-09-30T11:27:38.395Z,996.3677368
2022-09-30T11:28:34.266Z,996.453125
2022-09-30T11:29:39.891Z,996.3759155
2022-09-30T11:30:35.517Z,996.3598633
2022-09-30T11:31:29.876Z,996.3977051
2022-09-30T11:32:29.118Z,996.421875
2022-09-30T11:33:24.593Z,996.456543
2022-09-30T11:34:27.441Z,996.3838501
2022-09-30T11:35:20.688Z,996.4025269
2022-09-30T11:36:21.087Z,996.3977051
2022-09-30T11:37:19.329Z,996.3664551
2022-09-30T11:38:14.784Z,996.3883057
2022-09-30T11:39:15.293Z,996.3778687
2022-09-30T11:40:12.592Z,996.3456421
2022-09-30T11:41:14.755Z,996.3398438
2022-09-30T11:42:07.687Z,996.4057007
2022-09-30T11:43:08.346Z,996.3873291
2022-09-30T11:44:09.618Z,996.2706299
2022-09-30T11:45:02.828Z,996.3155518
2022-09-30T11:46:05.319Z,996.3526001
2022-09-30T11:46:58.241Z,996.3342285
2022-09-30T11:47:55.932Z,996.3410645
2022-09-30T11:48:56.310Z,996.2905273
2022-09-30T11:49:51.681Z,996.2672119
2022-09-30T11:51:31.019Z,996.3421021
2022-09-30T11:52:26.624Z,996.3269653